Flight Track Log - Related Links

Times and Time Zones

All times are in EDT time to prevent confusion due to time zone crossing. See the N53NW flight status page for this flight to view local times or setup timezone preferences in your user account.

Time Position Orientation Groundspeed Altitude Reporting Facility
EDT Latitude Longitude Course Direction KTS MPH feet Rate Location/Type
Thu 04:56:15 PM 38.9333 -77.5000 247° West 187 215 2,100  Level Potomac TRACON
Thu 04:57:09 PM 38.9167 -77.5500 247° West 229 264 4,800 3,053 Climbing Potomac TRACON
Thu 04:58:09 PM 38.8500 -77.5833 201° Southwest 251 289 7,900 3,200 Climbing Potomac TRACON
Thu 04:59:09 PM 38.7667 -77.6167 197° South 293 337 11,200 2,953 Climbing Potomac TRACON
Thu 05:00:17 PM 38.6706 -77.6603 200° South 323 372 14,200 1,754 Climbing Washington Center
Thu 05:01:19 PM 38.5803 -77.6978 198° South 329 379 15,000 1,377 Climbing Washington Center
Thu 05:02:19 PM 38.5000 -77.7431 204° Southwest 334 384 17,000 2,237 Climbing Washington Center
Thu 05:03:17 PM 38.4483 -77.8372 235° Southwest 317 365 19,400 2,441 Climbing Washington Center
Thu 05:04:17 PM 38.3986 -77.9364 237° Southwest 331 381 21,800 2,380 Climbing Washington Center
Thu 05:05:18 PM 38.3425 -78.0325 233° Southwest 342 394 24,200 2,410 Climbing Washington Center
Thu 05:06:19 PM 38.2717 -78.1200 224° Southwest 348 400 26,700 1,388 Climbing Washington Center
Thu 05:07:19 PM 38.1989 -78.2128 225° Southwest 353 406 27,000 150 Climbing Washington Center
Thu 05:08:19 PM 38.1239 -78.3053 224° Southwest 373 429 27,000 966 Level Washington Center
Thu 05:09:17 PM 38.0486 -78.4000 225° Southwest 378 435 28,900 1,932 Climbing Washington Center
Thu 05:10:17 PM 37.9797 -78.4869 225° Southwest 373 429 30,800 1,686 Climbing Washington Center
Thu 05:11:18 PM 37.9003 -78.5814 223° Southwest 373 429 32,300 1,537 Climbing Washington Center
Thu 05:12:18 PM 37.8314 -78.6681 225° Southwest 378 435 33,900 942 Climbing Washington Center
Thu 05:13:19 PM 37.7497 -78.7672 224° Southwest 390 449 34,200 1,059 Climbing Washington Center
Thu 05:14:17 PM 37.6719 -78.8583 223° Southwest 395 455 36,000 915 Climbing Washington Center
Thu 05:15:17 PM 37.5900 -78.9597 224° Southwest 400 460 36,000  Level Washington Center
Thu 05:16:18 PM 37.4992 -79.0681 223° Southwest 407 468 36,000  Level Washington Center
Thu 05:17:19 PM 37.4150 -79.1689 224° Southwest 407 468 36,000  Level Washington Center
Thu 05:18:17 PM 37.3306 -79.2669 223° Southwest 412 474 36,000  Level Washington Center
Thu 05:19:18 PM 37.2461 -79.3697 224° Southwest 412 474 36,000 -98 Level Washington Center
Thu 05:20:19 PM 37.1656 -79.4700 225° Southwest 412 474 35,800 -595 Descending Washington Center
Thu 05:21:19 PM 37.0811 -79.5700 223° Southwest 412 474 34,800 -1,017 Descending Washington Center
Thu 05:22:17 PM 37.0072 -79.6572 223° Southwest 412 474 33,800 -958 Descending Washington Center
Thu 05:23:18 PM 36.9244 -79.7567 224° Southwest 417 480 32,900 -1,005 Descending Washington Center
Thu 05:25:58 PM 36.6933 -80.0261 223° Southwest 412 474 30,100 -1,064 Descending Atlanta Center
Thu 05:26:58 PM 36.6192 -80.1150 224° Southwest 418 481 29,000 -1,050 Descending Atlanta Center
Thu 05:27:58 PM 36.5347 -80.2122 223° Southwest 418 481 28,000 -500 Descending Atlanta Center
Thu 05:28:58 PM 36.4542 -80.3089 224° Southwest 413 475 28,000  Level Atlanta Center
Thu 05:29:58 PM 36.3714 -80.4031 223° Southwest 413 475 28,000  Level Atlanta Center
Thu 05:30:58 PM 36.2847 -80.5050 223° Southwest 413 475 28,000  Level Atlanta Center
Thu 05:31:58 PM 36.2081 -80.5983 225° Southwest 411 473 28,000  Level Atlanta Center
Thu 05:32:58 PM 36.1272 -80.6917 223° Southwest 405 466 28,000  Level Atlanta Center
Thu 05:33:58 PM 36.0486 -80.7847 224° Southwest 400 460 28,000 -350 Level Atlanta Center
Thu 05:34:58 PM 35.9653 -80.8753 221° Southwest 400 460 27,300 -850 Descending Atlanta Center
Thu 05:35:58 PM 35.8903 -80.9631 223° Southwest 390 449 26,300 -1,000 Descending Atlanta Center
Thu 05:36:58 PM 35.8153 -81.0503 223° Southwest 383 441 25,300 -1,050 Descending Atlanta Center
Thu 05:37:58 PM 35.7361 -81.1400 223° Southwest 388 447 24,200 -1,050 Descending Atlanta Center
Thu 05:38:58 PM 35.6506 -81.2250 219° Southwest 378 435 23,200 -950 Descending Atlanta Center
Thu 05:39:58 PM 35.5753 -81.3169 225° Southwest 389 448 22,300 -1,000 Descending Atlanta Center
Thu 05:40:58 PM 35.5003 -81.4086 225° Southwest 389 448 21,200 -1,050 Descending Atlanta Center
Thu 05:41:58 PM 35.4289 -81.4875 222° Southwest 370 426 20,200 -1,000 Descending Atlanta Center
Thu 05:42:58 PM 35.3553 -81.5636 220° Southwest 353 406 19,200 -950 Descending Atlanta Center
Thu 05:43:58 PM 35.2731 -81.6272 212° Southwest 358 412 18,300 -600 Descending Atlanta Center
Thu 05:44:58 PM 35.1931 -81.6878 212° Southwest 344 396 18,000 -150 Descending Atlanta Center
Thu 05:45:58 PM 35.1147 -81.7486 212° Southwest 339 390 18,000 -500 Level Atlanta Center
Thu 05:46:58 PM 35.0325 -81.8067 210° Southwest 344 396 17,000 -1,200 Descending Atlanta Center
Thu 05:47:58 PM 34.9603 -81.8542 208° Southwest 337 388 15,600 -1,950 Descending Atlanta Center
Thu 05:48:58 PM 34.8839 -81.9067 209° Southwest 325 374 13,100 -2,300 Descending Atlanta Center
Thu 05:49:58 PM 34.8136 -81.9517 208° Southwest 305 351 11,000 -1,450 Descending Atlanta Center
Thu 05:50:58 PM 34.7497 -81.9986 211° Southwest 290 334 10,200 -1,500 Descending Atlanta Center
Thu 05:51:58 PM 34.6861 -82.0508 214° Southwest 283 326 8,000 -1,100 Descending Atlanta Center
Thu 05:52:58 PM 34.6433 -82.1175 232° Southwest 271 312 8,000  Level Atlanta Center
Thu 05:53:58 PM 34.5986 -82.1967 236° Southwest 276 318 8,000  Level Atlanta Center
Thu 05:54:58 PM 34.5539 -82.2758 236° Southwest 285 328 8,000  Level Atlanta Center
Thu 05:55:58 PM 34.5089 -82.3522 234° Southwest 279 321 8,000  Level Atlanta Center
Thu 05:56:58 PM 34.4703 -82.4211 236° Southwest 291 335 8,000  Level Atlanta Center
Thu 05:57:58 PM 34.4275 -82.5025 238° Southwest 291 335 8,000  Level Atlanta Center
Thu 05:58:58 PM 34.3803 -82.5764 232° Southwest 286 329 8,000  Level Atlanta Center
Thu 05:59:58 PM 34.3394 -82.6525 237° Southwest 286 329 8,000  Level Atlanta Center
Thu 06:00:58 PM 34.2986 -82.7261 236° Southwest 276 318 8,000 -250 Level Atlanta Center
Thu 06:01:58 PM 34.2514 -82.8047 234° Southwest 271 312 7,500 -950 Descending Atlanta Center
Thu 06:02:58 PM 34.2083 -82.8783 235° Southwest 271 312 6,100 -750 Descending Atlanta Center
Thu 06:03:58 PM 34.1692 -82.9492 236° Southwest 266 306 6,000 -50 Descending Atlanta Center
Thu 06:04:58 PM 34.1303 -83.0150 234° Southwest 260 299 6,000 -300 Level Atlanta Center
Thu 06:05:58 PM 34.0889 -83.0831 234° Southwest 260 299 5,400 -1,100 Descending Atlanta Center
Thu 06:06:58 PM 34.0519 -83.1461 235° Southwest 255 293 3,800 -1,450 Descending Atlanta Center
Thu 06:07:58 PM 34.0106 -83.2017 228° Southwest 242 278 2,500 -700 Descending Atlanta Center
Thu 06:08:58 PM 33.9753 -83.2472 227° Southwest 212 244 2,400 -500 Descending Atlanta Center
Thu 06:09:58 PM 33.9464 -83.2850 227° Southwest 183 211 1,500 -600 Descending Atlanta Center
Thu 06:10:58 PM 33.9194 -83.3278 233° Southwest 167 192 1,200 -300 Descending Atlanta Center
Thu 06:12:00 PM 33.9333 -83.3167 North  Level FlightAware Approximate
Thu 06:19:00 PM 33.9486 -83.3264 North  Level Estimated

Login

Don't have an account? Register now (free) for customized features, flight alerts, and more!